createdAt,value
2022-07-27T00:01:51.816Z,1.13
2022-07-27T00:04:20.654Z,1.30
2022-07-27T00:06:48.242Z,1.30
2022-07-27T00:09:15.998Z,1.10
2022-07-27T00:11:43.108Z,1.30
2022-07-27T00:14:10.103Z,1.40
2022-07-27T00:16:37.420Z,0.90
2022-07-27T00:19:05.050Z,1.08
2022-07-27T00:21:37.637Z,1.25
2022-07-27T00:26:38.798Z,1.15
2022-07-27T00:29:06.198Z,1.00
2022-07-27T00:31:33.273Z,1.13
2022-07-27T00:34:00.256Z,1.40
2022-07-27T00:36:27.131Z,1.02
2022-07-27T00:38:54.055Z,1.20
2022-07-27T00:41:20.986Z,1.10
2022-07-27T00:43:56.995Z,1.00
2022-07-27T00:46:24.898Z,1.13
2022-07-27T00:48:52.243Z,1.02
2022-07-27T00:51:21.147Z,1.10
2022-07-27T00:53:49.111Z,1.08
2022-07-27T00:56:16.573Z,1.20
2022-07-27T00:58:46.915Z,1.08
2022-07-27T01:01:13.772Z,1.10
2022-07-27T01:03:40.602Z,1.17
2022-07-27T01:06:08.528Z,1.25
2022-07-27T01:08:36.957Z,1.20
2022-07-27T01:11:04.259Z,0.98
2022-07-27T01:13:31.514Z,1.00
2022-07-27T01:15:59.774Z,1.15
2022-07-27T01:18:32.230Z,1.00
2022-07-27T01:21:00.822Z,1.10
2022-07-27T01:23:28.796Z,1.50
2022-07-27T01:25:56.022Z,0.90
2022-07-27T01:28:23.106Z,1.00
2022-07-27T01:30:50.510Z,0.90
2022-07-27T01:33:17.635Z,0.95
2022-07-27T01:35:44.507Z,1.30
2022-07-27T01:38:12.207Z,1.50
2022-07-27T01:40:40.082Z,1.20
2022-07-27T01:43:07.239Z,1.27
2022-07-27T01:45:34.234Z,1.48
2022-07-27T01:48:01.327Z,1.50
2022-07-27T01:50:28.301Z,1.20
2022-07-27T01:52:55.171Z,1.45
2022-07-27T01:55:22.226Z,1.73
2022-07-27T01:57:49.104Z,1.50
2022-07-27T02:00:16.175Z,1.52
2022-07-27T02:02:43.256Z,1.83
2022-07-27T02:05:13.949Z,1.52
2022-07-27T02:07:41.791Z,1.42
2022-07-27T02:10:10.310Z,1.48
2022-07-27T02:12:38.079Z,1.45
2022-07-27T02:15:14.748Z,1.20
2022-07-27T02:17:44.956Z,1.35
2022-07-27T02:20:14.381Z,1.50
2022-07-27T02:22:41.375Z,1.67
2022-07-27T02:25:09.107Z,1.63
2022-07-27T02:27:36.016Z,1.48
2022-07-27T02:30:04.393Z,1.70
2022-07-27T02:32:31.436Z,1.40
2022-07-27T02:34:58.396Z,1.48
2022-07-27T02:37:25.278Z,1.38
2022-07-27T02:39:53.229Z,1.63
2022-07-27T02:42:20.480Z,1.20
2022-07-27T02:44:47.395Z,1.30
2022-07-27T02:47:14.290Z,1.15
2022-07-27T02:49:41.232Z,1.70
2022-07-27T02:52:08.076Z,1.38
2022-07-27T02:54:35.211Z,1.52
2022-07-27T02:57:05.365Z,1.63
2022-07-27T02:59:32.439Z,1.70
2022-07-27T03:02:00.028Z,1.33
2022-07-27T03:04:27.201Z,1.60
2022-07-27T03:06:54.117Z,1.52
2022-07-27T03:09:33.099Z,1.85
2022-07-27T03:12:01.114Z,1.60
2022-07-27T03:14:28.016Z,1.45
2022-07-27T03:16:54.983Z,1.58
2022-07-27T03:19:24.670Z,1.70
2022-07-27T03:21:55.265Z,1.77
2022-07-27T03:24:22.103Z,1.60
2022-07-27T03:26:49.024Z,1.75
2022-07-27T03:29:15.876Z,1.88
2022-07-27T03:31:44.315Z,1.88
2022-07-27T03:34:11.440Z,1.80
2022-07-27T03:36:38.402Z,1.40
2022-07-27T03:39:06.306Z,1.60
2022-07-27T03:41:33.463Z,1.58
2022-07-27T03:44:00.298Z,1.52
2022-07-27T03:46:27.231Z,1.60
2022-07-27T03:48:54.159Z,1.60
2022-07-27T03:51:21.828Z,1.73
2022-07-27T03:53:48.783Z,1.55
2022-07-27T03:56:15.713Z,1.70
2022-07-27T03:58:42.796Z,1.80
2022-07-27T04:01:09.760Z,1.52
2022-07-27T04:03:41.095Z,1.95
2022-07-27T04:06:10.932Z,1.95
2022-07-27T04:08:37.840Z,1.70
2022-07-27T04:11:05.736Z,1.70
2022-07-27T04:13:34.532Z,1.73
2022-07-27T04:16:05.340Z,1.67
2022-07-27T04:18:32.575Z,1.75
2022-07-27T04:21:01.971Z,1.85
2022-07-27T04:23:29.063Z,1.30
2022-07-27T04:25:56.012Z,1.55
2022-07-27T04:28:22.832Z,1.80
2022-07-27T04:30:49.930Z,1.90
2022-07-27T04:33:17.231Z,1.85
2022-07-27T04:35:44.136Z,2.30
2022-07-27T04:38:10.998Z,1.60
2022-07-27T04:40:37.985Z,1.77
2022-07-27T04:43:06.671Z,1.60
2022-07-27T04:45:34.751Z,1.58
2022-07-27T04:48:10.297Z,1.50
2022-07-27T04:53:12.001Z,1.42
2022-07-27T04:55:43.140Z,1.00
2022-07-27T04:58:10.913Z,1.10
2022-07-27T05:00:37.952Z,1.00
2022-07-27T05:03:05.206Z,1.10
2022-07-27T05:05:32.358Z,1.10
2022-07-27T05:07:59.269Z,1.00
2022-07-27T05:10:26.443Z,1.00
2022-07-27T05:12:53.402Z,0.88
2022-07-27T05:15:21.128Z,0.88
2022-07-27T05:17:48.406Z,0.90
2022-07-27T05:20:15.575Z,0.90
2022-07-27T05:22:42.479Z,0.80
2022-07-27T05:25:09.869Z,0.90
2022-07-27T05:27:37.711Z,0.90
2022-07-27T05:30:21.844Z,0.80
2022-07-27T05:32:48.753Z,0.80
2022-07-27T05:35:15.761Z,0.70
2022-07-27T05:37:42.608Z,1.20
2022-07-27T05:40:10.659Z,1.48
2022-07-27T05:42:37.528Z,1.15
2022-07-27T05:45:05.066Z,1.08
2022-07-27T05:47:31.921Z,0.88
2022-07-27T05:49:59.683Z,0.90
2022-07-27T05:52:26.531Z,1.08
2022-07-27T05:54:53.445Z,0.73
2022-07-27T05:57:20.316Z,0.85
2022-07-27T05:59:47.745Z,0.85
2022-07-27T06:02:14.677Z,1.05
2022-07-27T06:04:41.572Z,1.08
2022-07-27T06:07:26.933Z,0.90
2022-07-27T06:09:53.817Z,0.90
2022-07-27T06:12:20.704Z,0.90
2022-07-27T06:14:51.201Z,1.10
2022-07-27T06:17:18.517Z,0.70
2022-07-27T06:19:45.641Z,1.38
2022-07-27T06:22:12.684Z,0.90
2022-07-27T06:24:39.519Z,0.82
2022-07-27T06:27:06.462Z,1.20
2022-07-27T06:29:34.972Z,0.93
2022-07-27T06:32:01.963Z,0.73
2022-07-27T06:34:29.117Z,0.93
2022-07-27T06:36:58.232Z,1.15
2022-07-27T06:39:25.102Z,0.88
2022-07-27T06:41:57.679Z,0.70
2022-07-27T06:44:24.923Z,0.95
2022-07-27T06:46:51.804Z,1.10
2022-07-27T06:49:19.025Z,0.90
2022-07-27T06:51:46.043Z,0.85
2022-07-27T06:54:13.003Z,0.95
2022-07-27T06:56:39.880Z,0.95
2022-07-27T06:59:06.785Z,1.20
2022-07-27T07:01:33.669Z,1.10
2022-07-27T07:04:00.723Z,1.10
2022-07-27T07:06:28.430Z,1.02
2022-07-27T07:08:55.399Z,1.02
2022-07-27T07:11:22.272Z,1.00
2022-07-27T07:13:49.208Z,1.05
2022-07-27T07:16:16.360Z,1.10
2022-07-27T07:18:43.293Z,0.70
2022-07-27T07:21:10.269Z,1.10
2022-07-27T07:23:37.372Z,0.80
2022-07-27T07:26:04.216Z,1.00
2022-07-27T07:28:31.125Z,0.80
2022-07-27T07:30:58.055Z,0.98
2022-07-27T07:33:25.184Z,0.90
2022-07-27T07:36:13.175Z,0.80
2022-07-27T07:38:38.949Z,0.90
2022-07-27T07:41:06.201Z,1.08
2022-07-27T07:43:35.536Z,0.80
2022-07-27T07:46:03.078Z,0.90
2022-07-27T07:48:30.117Z,0.85
2022-07-27T07:50:57.069Z,0.90
2022-07-27T07:53:24.547Z,0.90
2022-07-27T07:55:52.467Z,1.38
2022-07-27T07:58:20.575Z,1.20
2022-07-27T08:00:47.928Z,1.00
2022-07-27T08:03:15.227Z,1.48
2022-07-27T08:05:42.333Z,1.05
2022-07-27T08:08:09.528Z,1.23
2022-07-27T08:10:36.624Z,0.95
2022-07-27T08:13:03.738Z,0.75
2022-07-27T08:15:35.702Z,0.80
2022-07-27T08:18:05.471Z,1.02
2022-07-27T08:20:32.981Z,1.00
2022-07-27T08:23:00.610Z,1.17
2022-07-27T08:25:27.683Z,1.02
2022-07-27T08:27:55.391Z,1.10
2022-07-27T08:30:24.041Z,0.90
2022-07-27T08:32:58.446Z,1.00
2022-07-27T08:35:26.470Z,0.90
2022-07-27T08:37:53.858Z,1.13
2022-07-27T08:40:39.656Z,0.90
2022-07-27T08:43:09.164Z,0.90
2022-07-27T08:45:37.532Z,1.00
2022-07-27T08:48:05.219Z,0.90
2022-07-27T08:50:34.561Z,1.08
2022-07-27T08:53:08.903Z,1.00
2022-07-27T08:55:46.646Z,1.20
2022-07-27T08:58:15.434Z,0.90
2022-07-27T09:00:45.579Z,0.93
2022-07-27T09:03:18.877Z,1.30
2022-07-27T09:05:48.990Z,1.02
2022-07-27T09:08:30.345Z,1.05
2022-07-27T09:10:59.697Z,1.08
2022-07-27T09:13:34.435Z,1.38
2022-07-27T09:16:23.562Z,0.93
2022-07-27T09:19:00.583Z,1.10
2022-07-27T09:21:28.487Z,0.77
2022-07-27T09:24:29.696Z,1.80
2022-07-27T09:27:04.404Z,1.00
2022-07-27T09:29:36.269Z,1.10
2022-07-27T09:32:17.526Z,1.20
2022-07-27T09:34:45.639Z,1.30
2022-07-27T09:37:23.702Z,1.02
2022-07-27T09:39:50.689Z,1.02
2022-07-27T09:43:05.586Z,0.85
2022-07-27T09:45:32.721Z,1.15
2022-07-27T09:48:19.106Z,1.05
2022-07-27T09:51:01.538Z,1.08
2022-07-27T09:53:43.785Z,1.02
2022-07-27T09:56:13.388Z,1.27
2022-07-27T09:58:41.484Z,1.38
2022-07-27T10:01:22.565Z,1.30
2022-07-27T10:03:52.798Z,1.38
2022-07-27T10:06:20.011Z,1.30
2022-07-27T10:08:50.287Z,1.08
2022-07-27T10:11:18.458Z,0.80
2022-07-27T10:13:46.158Z,1.25
2022-07-27T10:16:17.749Z,1.08
2022-07-27T10:19:07.934Z,1.17
2022-07-27T10:21:40.140Z,1.00
2022-07-27T10:24:13.885Z,1.25
2022-07-27T10:26:43.054Z,1.00
2022-07-27T10:29:18.611Z,1.02
2022-07-27T10:31:54.802Z,0.82
2022-07-27T10:34:35.706Z,1.00
2022-07-27T10:37:08.861Z,1.27
2022-07-27T10:39:38.616Z,0.80
2022-07-27T10:42:25.529Z,1.08
2022-07-27T10:45:17.073Z,1.10
2022-07-27T10:47:50.724Z,1.20
2022-07-27T10:50:17.589Z,1.13
2022-07-27T10:52:53.936Z,0.95
2022-07-27T10:55:30.349Z,0.88
2022-07-27T10:58:02.655Z,1.23
2022-07-27T11:00:55.625Z,1.10
2022-07-27T11:03:28.286Z,1.25
2022-07-27T11:06:01.325Z,1.08
2022-07-27T11:08:40.995Z,1.10
2022-07-27T11:11:19.878Z,0.90
2022-07-27T11:13:49.684Z,0.80
2022-07-27T11:16:25.986Z,0.98
2022-07-27T11:19:03.709Z,1.40
2022-07-27T11:21:38.563Z,1.20
2022-07-27T11:24:18.841Z,1.00
2022-07-27T11:26:48.182Z,1.02
2022-07-27T11:29:16.974Z,0.98
2022-07-27T11:31:55.238Z,0.90
2022-07-27T11:34:41.854Z,1.20
2022-07-27T11:37:19.466Z,1.17
2022-07-27T11:40:00.214Z,0.95
2022-07-27T11:42:40.127Z,1.17
2022-07-27T11:45:07.727Z,1.20
2022-07-27T11:47:36.007Z,1.27
2022-07-27T11:50:08.230Z,1.13
2022-07-27T11:52:35.223Z,1.40
2022-07-27T11:55:02.743Z,1.17
2022-07-27T11:57:33.996Z,1.27
2022-07-27T12:00:02.107Z,1.00
2022-07-27T12:02:49.073Z,1.13
2022-07-27T12:05:16.324Z,1.20
2022-07-27T12:07:44.509Z,0.93
2022-07-27T12:10:11.547Z,1.30
2022-07-27T12:12:38.590Z,1.58
2022-07-27T12:15:44.223Z,1.10
2022-07-27T12:18:04.238Z,1.08
2022-07-27T12:20:37.850Z,1.10
2022-07-27T12:23:07.828Z,1.38
2022-07-27T12:25:35.372Z,1.20
2022-07-27T12:28:05.772Z,1.30
2022-07-27T12:30:36.188Z,1.50
2022-07-27T12:33:05.210Z,0.90
2022-07-27T12:35:46.793Z,1.50
2022-07-27T12:38:14.132Z,1.23
2022-07-27T12:40:52.646Z,1.10
2022-07-27T12:43:25.819Z,1.00
2022-07-27T12:45:54.425Z,1.10
2022-07-27T12:48:27.425Z,1.30
2022-07-27T12:51:03.046Z,1.05
2022-07-27T12:53:30.790Z,1.20
2022-07-27T12:56:00.625Z,1.10
2022-07-27T12:58:27.698Z,1.13
2022-07-27T13:00:55.112Z,1.20
2022-07-27T13:03:22.496Z,1.67
2022-07-27T13:05:49.555Z,1.60
2022-07-27T13:08:17.182Z,1.10
2022-07-27T13:10:44.640Z,1.50
2022-07-27T13:13:12.061Z,1.30
2022-07-27T13:15:39.079Z,1.23
2022-07-27T13:18:06.330Z,1.30
2022-07-27T13:20:35.901Z,0.80
2022-07-27T13:23:02.840Z,1.55
2022-07-27T13:25:29.685Z,1.30
2022-07-27T13:27:56.734Z,1.20
2022-07-27T13:30:24.606Z,1.13
2022-07-27T13:32:51.540Z,1.13
2022-07-27T13:35:18.403Z,1.73
2022-07-27T13:37:45.960Z,1.40
2022-07-27T13:40:13.819Z,1.20
2022-07-27T13:42:40.736Z,1.20
2022-07-27T13:45:10.373Z,1.10
2022-07-27T13:47:39.975Z,1.30
2022-07-27T13:50:13.637Z,1.52
2022-07-27T13:52:43.924Z,1.10
2022-07-27T13:55:10.828Z,1.02
2022-07-27T13:57:38.002Z,1.30
2022-07-27T14:00:05.582Z,1.17
2022-07-27T14:02:32.507Z,1.20
2022-07-27T14:04:59.369Z,1.20
2022-07-27T14:07:28.359Z,1.17
2022-07-27T14:10:14.565Z,1.17
2022-07-27T14:12:41.506Z,1.25
2022-07-27T14:15:08.789Z,1.00
2022-07-27T14:17:37.417Z,1.27
2022-07-27T14:20:05.669Z,1.17
2022-07-27T14:22:32.603Z,1.27
2022-07-27T14:24:59.470Z,1.10
2022-07-27T14:27:26.427Z,1.00
2022-07-27T14:30:04.421Z,1.48
2022-07-27T14:32:31.234Z,1.30
2022-07-27T14:34:58.204Z,1.38
2022-07-27T14:37:25.115Z,1.13
2022-07-27T14:39:52.053Z,1.17
2022-07-27T14:42:22.070Z,1.27
2022-07-27T14:44:49.019Z,1.13
2022-07-27T14:47:15.894Z,1.20
2022-07-27T14:49:42.813Z,1.20
2022-07-27T14:52:13.668Z,1.13
2022-07-27T14:54:41.718Z,1.15
2022-07-27T14:57:08.874Z,1.00
2022-07-27T14:59:35.985Z,0.90
2022-07-27T15:02:03.321Z,1.20
2022-07-27T15:04:30.424Z,1.25
2022-07-27T15:06:58.466Z,1.58
2022-07-27T15:09:28.442Z,1.33
2022-07-27T15:11:56.041Z,1.20
2022-07-27T15:14:23.475Z,1.20
2022-07-27T15:16:51.573Z,1.20
2022-07-27T15:19:18.465Z,1.20
2022-07-27T15:21:47.149Z,1.08
2022-07-27T15:24:14.736Z,1.05
2022-07-27T15:26:41.792Z,1.52
2022-07-27T15:29:15.033Z,1.55
2022-07-27T15:31:43.409Z,1.17
2022-07-27T15:34:10.612Z,1.20
2022-07-27T15:36:44.753Z,1.23
2022-07-27T15:39:14.827Z,1.10
2022-07-27T15:41:42.153Z,1.00
2022-07-27T15:44:09.515Z,1.10
2022-07-27T15:46:36.511Z,1.33
2022-07-27T15:49:03.554Z,1.10
2022-07-27T15:51:30.840Z,1.65
2022-07-27T15:53:57.878Z,1.65
2022-07-27T15:56:25.302Z,1.50
2022-07-27T15:58:52.449Z,1.30
2022-07-27T16:01:21.172Z,1.25
2022-07-27T16:03:49.243Z,1.25
2022-07-27T16:06:16.966Z,1.80
2022-07-27T16:08:47.749Z,1.30
2022-07-27T16:11:14.764Z,1.33
2022-07-27T16:13:42.038Z,1.20
2022-07-27T16:16:27.615Z,1.30
2022-07-27T16:18:56.796Z,1.40
2022-07-27T16:21:24.901Z,1.50
2022-07-27T16:23:53.182Z,1.20
2022-07-27T16:26:20.006Z,0.93
2022-07-27T16:28:49.348Z,1.15
2022-07-27T16:31:20.663Z,0.90
2022-07-27T16:33:49.601Z,1.23
2022-07-27T16:36:22.951Z,1.35
2022-07-27T16:38:51.849Z,1.38
2022-07-27T16:41:21.221Z,1.30
2022-07-27T16:43:48.555Z,1.48
2022-07-27T16:46:16.079Z,1.35
2022-07-27T16:48:44.171Z,1.35
2022-07-27T16:51:15.874Z,1.27
2022-07-27T16:53:46.000Z,1.40
2022-07-27T16:56:12.974Z,1.40
2022-07-27T16:58:40.599Z,1.40
2022-07-27T17:01:08.391Z,1.30
2022-07-27T17:03:35.534Z,1.20
2022-07-27T17:06:06.020Z,1.35
2022-07-27T17:08:34.370Z,1.73
2022-07-27T17:11:02.350Z,1.30
2022-07-27T17:13:33.767Z,1.80
2022-07-27T17:16:06.121Z,1.80
2022-07-27T17:18:39.905Z,1.85
2022-07-27T17:21:12.368Z,1.35
2022-07-27T17:23:41.051Z,1.48
2022-07-27T17:26:08.813Z,1.10
2022-07-27T17:28:39.083Z,2.08
2022-07-27T17:31:08.042Z,1.30
2022-07-27T17:33:35.393Z,1.10
2022-07-27T17:36:02.354Z,1.08
2022-07-27T17:38:29.343Z,1.65
2022-07-27T17:40:56.521Z,1.27
2022-07-27T17:43:23.387Z,1.27
2022-07-27T17:45:51.239Z,1.10
2022-07-27T17:48:18.189Z,1.38
2022-07-27T17:50:45.123Z,1.20
2022-07-27T17:53:12.025Z,1.65
2022-07-27T17:55:38.891Z,1.58
2022-07-27T17:58:05.731Z,1.67
2022-07-27T18:00:32.635Z,1.70
2022-07-27T18:03:00.172Z,1.23
2022-07-27T18:05:27.230Z,1.67
2022-07-27T18:07:54.501Z,1.55
2022-07-27T18:10:21.465Z,1.83
2022-07-27T18:12:48.308Z,1.52
2022-07-27T18:15:34.406Z,1.73
2022-07-27T18:18:01.354Z,1.75
2022-07-27T18:20:28.224Z,1.38
2022-07-27T18:22:55.084Z,1.60
2022-07-27T18:25:22.309Z,1.48
2022-07-27T18:27:50.296Z,1.00
2022-07-27T18:30:17.677Z,1.42
2022-07-27T18:32:45.601Z,1.20
2022-07-27T18:35:12.959Z,1.45
2022-07-27T18:37:40.094Z,1.65
2022-07-27T18:40:09.210Z,1.55
2022-07-27T18:42:37.250Z,1.45
2022-07-27T18:45:09.487Z,1.55
2022-07-27T18:47:37.255Z,1.30
2022-07-27T18:50:05.503Z,1.65
2022-07-27T18:52:33.107Z,1.45
2022-07-27T18:55:00.341Z,1.20
2022-07-27T18:57:27.322Z,1.60
2022-07-27T18:59:54.391Z,1.40
2022-07-27T19:02:23.122Z,1.23
2022-07-27T19:04:53.977Z,1.50
2022-07-27T19:07:22.199Z,1.27
2022-07-27T19:09:50.791Z,1.42
2022-07-27T19:12:17.658Z,1.23
2022-07-27T19:14:44.683Z,1.42
2022-07-27T19:17:17.800Z,1.75
2022-07-27T19:19:45.157Z,1.48
2022-07-27T19:22:13.267Z,1.77
2022-07-27T19:24:40.109Z,1.88
2022-07-27T19:27:07.317Z,1.30
2022-07-27T19:29:34.177Z,1.33
2022-07-27T19:32:01.032Z,1.40
2022-07-27T19:34:27.991Z,1.42
2022-07-27T19:36:54.920Z,1.52
2022-07-27T19:39:21.779Z,1.35
2022-07-27T19:41:48.752Z,1.80
2022-07-27T19:44:19.128Z,1.40
2022-07-27T19:46:49.226Z,1.40
2022-07-27T19:49:18.412Z,1.50
2022-07-27T19:51:45.594Z,1.90
2022-07-27T19:54:12.531Z,1.25
2022-07-27T19:56:39.509Z,1.95
2022-07-27T19:59:06.706Z,1.60
2022-07-27T20:01:33.892Z,2.05
2022-07-27T20:04:03.881Z,1.40
2022-07-27T20:06:31.513Z,1.55
2022-07-27T20:08:59.848Z,1.58
2022-07-27T20:11:29.967Z,1.30
2022-07-27T20:14:02.426Z,1.50
2022-07-27T20:16:32.197Z,2.13
2022-07-27T20:19:00.199Z,1.33
2022-07-27T20:21:27.384Z,1.85
2022-07-27T20:23:54.536Z,1.70
2022-07-27T20:26:21.397Z,1.80
2022-07-27T20:28:49.990Z,1.80
2022-07-27T20:31:17.493Z,1.40
2022-07-27T20:33:44.515Z,1.85
2022-07-27T20:36:11.404Z,1.67
2022-07-27T20:38:38.316Z,1.75
2022-07-27T20:41:05.276Z,1.90
2022-07-27T20:43:32.481Z,1.58
2022-07-27T20:45:59.459Z,1.95
2022-07-27T20:48:26.454Z,1.63
2022-07-27T20:50:53.328Z,1.75
2022-07-27T20:53:20.389Z,1.70
2022-07-27T20:55:48.154Z,1.50
2022-07-27T20:58:15.249Z,1.90
2022-07-27T21:00:42.071Z,1.60
2022-07-27T21:03:08.984Z,1.67
2022-07-27T21:05:35.981Z,1.80
2022-07-27T21:08:02.936Z,1.70
2022-07-27T21:10:29.920Z,1.90
2022-07-27T21:12:57.526Z,1.63
2022-07-27T21:15:33.624Z,1.80
2022-07-27T21:18:02.340Z,1.73
2022-07-27T21:20:29.426Z,1.83
2022-07-27T21:23:15.169Z,1.80
2022-07-27T21:25:44.166Z,1.90
2022-07-27T21:28:16.464Z,1.45
2022-07-27T21:30:45.699Z,1.85
2022-07-27T21:33:12.861Z,2.08
2022-07-27T21:35:39.920Z,1.92
2022-07-27T21:38:06.794Z,1.98
2022-07-27T21:40:34.039Z,1.67
2022-07-27T21:43:01.129Z,1.42
2022-07-27T21:45:28.228Z,1.75
2022-07-27T21:47:55.235Z,1.80
2022-07-27T21:50:22.513Z,1.60
2022-07-27T21:52:49.585Z,2.30
2022-07-27T21:55:18.264Z,2.42
2022-07-27T21:57:50.687Z,1.77
2022-07-27T22:00:23.799Z,1.70
2022-07-27T22:02:51.815Z,1.85
2022-07-27T22:05:18.675Z,1.67
2022-07-27T22:07:45.599Z,1.50
2022-07-27T22:10:13.553Z,1.60
2022-07-27T22:12:40.568Z,1.63
2022-07-27T22:15:08.150Z,1.80
2022-07-27T22:17:35.252Z,1.80
2022-07-27T22:20:12.950Z,1.50
2022-07-27T22:22:39.936Z,1.63
2022-07-27T22:25:07.011Z,1.50
2022-07-27T22:27:33.871Z,2.08
2022-07-27T22:30:00.981Z,1.70
2022-07-27T22:32:27.916Z,1.42
2022-07-27T22:34:54.758Z,1.40
2022-07-27T22:37:21.741Z,1.25
2022-07-27T22:39:48.643Z,1.55
2022-07-27T22:42:15.505Z,1.30
2022-07-27T22:44:43.176Z,1.45
2022-07-27T22:47:10.386Z,1.40
2022-07-27T22:49:38.065Z,1.15
2022-07-27T22:52:05.454Z,1.60
2022-07-27T22:54:36.681Z,1.45
2022-07-27T22:57:07.217Z,1.30
2022-07-27T22:59:35.213Z,1.40
2022-07-27T23:02:02.215Z,1.20
2022-07-27T23:04:29.429Z,1.40
2022-07-27T23:06:57.187Z,1.60
2022-07-27T23:09:24.258Z,1.30
2022-07-27T23:11:52.080Z,1.30
2022-07-27T23:14:19.304Z,1.40
2022-07-27T23:16:46.681Z,1.65
2022-07-27T23:19:13.668Z,1.45
2022-07-27T23:21:42.156Z,1.80
2022-07-27T23:24:10.907Z,1.23
2022-07-27T23:26:37.970Z,1.30
2022-07-27T23:29:04.827Z,1.60
2022-07-27T23:31:31.737Z,1.50
2022-07-27T23:33:58.738Z,1.63
2022-07-27T23:36:25.578Z,1.60
2022-07-27T23:38:52.501Z,1.67
2022-07-27T23:41:20.913Z,1.90
2022-07-27T23:43:47.904Z,1.40
2022-07-27T23:46:14.833Z,1.50
2022-07-27T23:48:42.046Z,1.70
2022-07-27T23:51:09.184Z,1.35
2022-07-27T23:53:36.804Z,1.33
2022-07-27T23:56:03.810Z,1.63
2022-07-27T23:58:30.730Z,1.58
